Terminal Aerodrome Forecast
Issued by NWS Mobile, AL

Home | Current Version | Previous Version | Text Only | Print | Product List | Glossary On
Versions: 1 2 3 4 5 6 7 8 9 10 11 12 13 14 15 16 17 18 19 20 21 22 23 24 25 26 27 28 29 30 31 32 33 34 35 36 37 38 39 40 41 42 43 44 45 46 47 48
194
FTUS44 KMOB 212320
TAFMOB
TAF
KMOB 212320Z 2200/2224 10007KT P6SM VCSH SCT016 BKN028 BKN250
     FM220600 34002KT 4SM BR VCSH SCT007 BKN015
      TEMPO 2208/2212 1SM -DZ BR OVC005
     FM221600 35007KT P6SM BKN008
     FM221900 35005KT P6SM SCT015=

USA.gov is the U.S. government's official web portal to all federal, state and local government web resources and services.